This is the latest recevied weather packets stored in our database for station/object N3DOU-1. If no packets are shown the sender has not sent any weather packets the latest 10 day(s).
| Time | Temp. | Humidity | Pressure | Rain* | Wind** | Luminosity | Snow |
|---|---|---|---|---|---|---|---|
| 1778153183 | 12.22° C | 87% | 1012.2 hPa | 0 mm | - | - | - |
| 1778152284 | 12.22° C | 86% | 1012.1 hPa | 0 mm | - | - | - |
| 1778151384 | 12.22° C | 86% | 1012.1 hPa | 0 mm | - | - | - |
| 1778150483 | 11.67° C | 84% | 1011.9 hPa | 0 mm | - | - | - |
| 1778147784 | 12.22° C | 83% | 1011.7 hPa | 0 mm | - | - | - |
| 1778146884 | 12.22° C | 82% | 1011.7 hPa | 0 mm | - | - | - |
| 1778145984 | 12.22° C | 81% | 1011.9 hPa | 0 mm | - | - | - |
| 1778145084 | 11.67° C | 82% | 1011.2 hPa | 0 mm | - | - | - |
| 1778144184 | 12.22° C | 81% | 1011.1 hPa | 0 mm | - | - | - |
| 1778143283 | 12.22° C | 81% | 1011 hPa | 0 mm | - | - | - |
| 1778142384 | 12.22° C | 79% | 1010.9 hPa | 0 mm | - | - | - |
| 1778141483 | 12.22° C | 81% | 1010.5 hPa | 0 mm | - | - | - |
| 1778140583 | 12.22° C | 82% | 1010.4 hPa | 0 mm | - | - | - |
| 1778139684 | 12.22° C | 82% | 1010.8 hPa | 0 mm | - | - | - |
| 1778138783 | 12.22° C | 83% | 1010.6 hPa | 0.25 mm | - | - | - |
| 1778137884 | 12.78° C | 84% | 1010.2 hPa | 0.51 mm | - | - | - |
| 1778136984 | 13.33° C | 85% | 1010.1 hPa | 0.76 mm | - | - | - |
| 1778136085 | 13.89° C | 87% | 1010.3 hPa | 1.78 mm | - | - | - |
| 1778135183 | 13.89° C | 88% | 1010.2 hPa | 3.05 mm | - | - | - |
| 1778134292 | 14.44° C | 87% | 1010.2 hPa | 3.3 mm | - | - | - |
| 1778133383 | 14.44° C | 87% | 1010.4 hPa | 3.05 mm | - | - | - |
| 1778132483 | 15° C | 84% | 1010.7 hPa | 2.03 mm | - | - | - |
| 1778131583 | 16.11° C | 78% | 1010.7 hPa | 0.51 mm | - | - | - |
| 1778130684 | 16.67° C | 76% | 1010 hPa | 0 mm | - | - | - |
| 1778129782 | 16.67° C | 75% | 1010.2 hPa | 0 mm | - | - | - |
* Rain latest hour (hover to see other rain measurements)
** Current wind speed in m/s (hover to see current wind gust speed)